createdAt,value
2018-06-15T00:00:09.863Z,87.40
2018-06-15T00:02:38.606Z,87.30
2018-06-15T00:05:07.224Z,87.30
2018-06-15T00:07:35.774Z,87.10
2018-06-15T00:10:04.418Z,87.80
2018-06-15T00:12:33.369Z,87.70
2018-06-15T00:15:02.302Z,87.30
2018-06-15T00:17:30.828Z,87.30
2018-06-15T00:19:59.962Z,87.60
2018-06-15T00:22:28.680Z,87.40
2018-06-15T00:24:57.286Z,87.90
2018-06-15T00:27:26.284Z,87.80
2018-06-15T00:29:54.895Z,87.80
2018-06-15T00:32:23.440Z,87.60
2018-06-15T00:34:52.080Z,87.60
2018-06-15T00:37:21.056Z,87.80
2018-06-15T00:39:49.814Z,88.60
2018-06-15T00:42:18.376Z,88.60
2018-06-15T00:44:47.201Z,88.80
2018-06-15T00:47:15.747Z,89.10
2018-06-15T00:49:44.476Z,88.90
2018-06-15T00:52:13.319Z,88.90
2018-06-15T00:54:41.933Z,88.80
2018-06-15T00:57:21.553Z,89.30
2018-06-15T00:59:50.380Z,89.40
2018-06-15T01:02:18.966Z,89.50
2018-06-15T01:04:47.774Z,89.60
2018-06-15T01:07:16.281Z,89.50
2018-06-15T01:09:44.828Z,89.70
2018-06-15T01:12:16.945Z,89.70
2018-06-15T01:14:45.478Z,89.70
2018-06-15T01:17:14.036Z,89.50
2018-06-15T01:19:42.718Z,89.50
2018-06-15T01:22:11.279Z,89.50
2018-06-15T01:24:39.889Z,89.40
2018-06-15T01:27:08.424Z,89.50
2018-06-15T01:29:37.282Z,89.50
2018-06-15T01:32:05.829Z,89.80
2018-06-15T01:34:34.420Z,90.00
2018-06-15T01:37:02.970Z,90.30
2018-06-15T01:39:31.913Z,90.50
2018-06-15T01:42:00.466Z,90.50
2018-06-15T01:44:29.032Z,90.70
2018-06-15T01:46:57.578Z,90.30
2018-06-15T01:49:26.428Z,90.30
2018-06-15T01:51:55.036Z,90.20
2018-06-15T01:54:23.674Z,90.10
2018-06-15T01:56:52.777Z,90.20
2018-06-15T01:59:21.482Z,90.50
2018-06-15T02:01:50.380Z,90.50
2018-06-15T02:04:19.016Z,90.40
2018-06-15T02:06:47.721Z,91.00
2018-06-15T02:09:16.264Z,91.10
2018-06-15T02:11:44.812Z,91.10
2018-06-15T02:14:13.520Z,91.10
2018-06-15T02:16:42.026Z,91.10
2018-06-15T02:19:10.733Z,91.10
2018-06-15T02:21:39.342Z,91.20
2018-06-15T02:24:08.090Z,91.10
2018-06-15T02:26:36.701Z,91.00
2018-06-15T02:29:05.273Z,91.10
2018-06-15T02:31:33.861Z,91.10
2018-06-15T02:34:02.397Z,91.00
2018-06-15T02:38:59.252Z,90.80
2018-06-15T02:41:28.205Z,90.70
2018-06-15T02:43:56.794Z,90.70
2018-06-15T02:46:25.786Z,90.80
2018-06-15T02:48:54.338Z,91.00
2018-06-15T02:51:23.177Z,91.20
2018-06-15T02:53:52.226Z,91.20
2018-06-15T02:56:20.882Z,91.60
2018-06-15T02:58:49.639Z,91.80
2018-06-15T03:01:18.536Z,91.60
2018-06-15T03:03:47.142Z,91.60
2018-06-15T03:06:15.754Z,91.80
2018-06-15T03:08:44.316Z,91.50
2018-06-15T03:11:12.926Z,91.50
2018-06-15T03:13:41.551Z,91.30
2018-06-15T03:16:10.658Z,91.20
2018-06-15T03:18:39.670Z,91.20
2018-06-15T03:21:08.443Z,91.20
2018-06-15T03:23:37.285Z,91.10
2018-06-15T03:26:05.904Z,91.00
2018-06-15T03:28:34.606Z,90.70
2018-06-15T03:31:03.291Z,90.70
2018-06-15T03:33:31.930Z,90.90
2018-06-15T03:36:00.603Z,91.40
2018-06-15T03:38:47.097Z,91.60
2018-06-15T03:41:15.705Z,91.60
2018-06-15T03:43:44.385Z,91.60
2018-06-15T03:46:13.034Z,91.80
2018-06-15T03:48:41.674Z,92.00
2018-06-15T03:51:10.395Z,91.80
2018-06-15T03:53:39.162Z,91.50
2018-06-15T03:56:07.883Z,91.40
2018-06-15T03:58:36.994Z,91.70
2018-06-15T04:01:05.674Z,91.70
2018-06-15T04:03:34.407Z,91.70
2018-06-15T04:06:03.015Z,91.70
2018-06-15T04:08:31.698Z,92.20
2018-06-15T04:11:00.307Z,92.00
2018-06-15T04:13:28.958Z,92.00
2018-06-15T04:15:57.628Z,92.10
2018-06-15T04:18:26.335Z,92.10
2018-06-15T04:20:54.901Z,92.10
2018-06-15T04:23:23.585Z,92.00
2018-06-15T04:25:52.251Z,91.80
2018-06-15T04:28:20.896Z,91.70
2018-06-15T04:30:49.558Z,91.40
2018-06-15T04:33:18.261Z,91.10
2018-06-15T04:35:47.636Z,90.90
2018-06-15T04:38:16.290Z,90.70
2018-06-15T04:40:44.933Z,90.80
2018-06-15T04:43:13.576Z,90.50
2018-06-15T04:45:42.228Z,90.10
2018-06-15T04:48:11.249Z,90.30
2018-06-15T04:50:39.885Z,90.50
2018-06-15T04:53:08.541Z,90.30
2018-06-15T04:55:37.187Z,90.30
2018-06-15T04:58:05.890Z,90.20
2018-06-15T05:00:34.545Z,89.70
2018-06-15T05:03:03.849Z,89.40
2018-06-15T05:05:32.976Z,89.80
2018-06-15T05:08:02.150Z,89.40
2018-06-15T05:10:31.517Z,89.10
2018-06-15T05:13:00.515Z,87.90
2018-06-15T05:15:29.979Z,87.60
2018-06-15T05:17:58.564Z,86.30
2018-06-15T05:20:27.365Z,86.30
2018-06-15T05:22:56.151Z,85.80
2018-06-15T05:25:24.861Z,85.80
2018-06-15T05:27:53.484Z,85.70
2018-06-15T05:30:22.405Z,85.80
2018-06-15T05:32:51.094Z,85.80
2018-06-15T05:35:20.031Z,86.00
2018-06-15T05:37:48.618Z,85.90
2018-06-15T05:40:18.704Z,85.50
2018-06-15T05:42:47.236Z,84.60
2018-06-15T05:45:16.349Z,84.60
2018-06-15T05:47:45.054Z,84.20
2018-06-15T05:50:13.735Z,83.70
2018-06-15T05:52:42.422Z,83.70
2018-06-15T05:55:11.101Z,84.00
2018-06-15T05:57:39.955Z,83.10
2018-06-15T06:00:08.621Z,83.70
2018-06-15T06:02:37.184Z,83.40
2018-06-15T06:05:05.919Z,83.60
2018-06-15T06:07:34.491Z,83.40
2018-06-15T06:10:03.066Z,82.80
2018-06-15T06:12:31.677Z,82.90
2018-06-15T06:15:00.378Z,83.10
2018-06-15T06:17:29.068Z,82.10
2018-06-15T06:19:58.321Z,82.30
2018-06-15T06:22:27.010Z,82.00
2018-06-15T06:24:55.674Z,81.30
2018-06-15T06:27:24.387Z,80.90
2018-06-15T06:29:53.056Z,81.00
2018-06-15T06:32:21.734Z,81.70
2018-06-15T06:34:50.341Z,80.60
2018-06-15T06:37:18.957Z,80.50
2018-06-15T06:39:47.674Z,81.10
2018-06-15T06:42:16.554Z,80.80
2018-06-15T06:44:45.192Z,79.80
2018-06-15T06:47:13.867Z,79.70
2018-06-15T06:49:42.374Z,79.70
2018-06-15T06:52:10.932Z,79.30
2018-06-15T06:54:39.802Z,78.90
2018-06-15T06:57:08.874Z,78.80
2018-06-15T06:59:37.433Z,78.70
2018-06-15T07:02:06.552Z,78.00
2018-06-15T07:04:35.146Z,79.10
2018-06-15T07:07:03.726Z,77.90
2018-06-15T07:09:32.390Z,77.60
2018-06-15T07:12:00.973Z,77.10
2018-06-15T07:14:29.873Z,75.90
2018-06-15T07:16:58.433Z,75.00
2018-06-15T07:19:27.121Z,75.80
2018-06-15T07:21:55.936Z,75.90
2018-06-15T07:24:24.610Z,74.00
2018-06-15T07:26:53.202Z,74.80
2018-06-15T07:29:21.798Z,74.20
2018-06-15T07:31:50.717Z,73.50
2018-06-15T07:34:19.587Z,73.70
2018-06-15T07:36:48.203Z,72.80
2018-06-15T07:39:16.975Z,71.40
2018-06-15T07:41:45.525Z,71.30
2018-06-15T07:44:14.186Z,72.10
2018-06-15T07:46:42.758Z,70.50
2018-06-15T07:49:11.357Z,70.60
2018-06-15T07:51:39.931Z,68.70
2018-06-15T07:54:08.741Z,69.90
2018-06-15T07:56:37.734Z,70.80
2018-06-15T07:59:07.135Z,71.90
2018-06-15T08:01:35.778Z,68.80
2018-06-15T08:04:06.791Z,67.80
2018-06-15T08:06:35.593Z,68.40
2018-06-15T08:09:06.142Z,68.60
2018-06-15T08:11:34.832Z,70.50
2018-06-15T08:14:03.513Z,69.10
2018-06-15T08:16:32.646Z,70.90
2018-06-15T08:19:01.482Z,68.20
2018-06-15T08:21:30.426Z,68.60
2018-06-15T08:23:59.305Z,68.60
2018-06-15T08:26:27.961Z,68.60
2018-06-15T08:28:56.583Z,65.80
2018-06-15T08:31:25.162Z,66.40
2018-06-15T08:33:53.837Z,66.30
2018-06-15T08:36:22.495Z,63.60
2018-06-15T08:38:51.126Z,64.40
2018-06-15T08:41:19.809Z,65.10
2018-06-15T08:43:48.442Z,64.30
2018-06-15T08:46:17.091Z,64.90
2018-06-15T08:48:45.677Z,65.80
2018-06-15T08:51:14.305Z,66.00
2018-06-15T08:53:42.994Z,67.60
2018-06-15T08:56:11.688Z,68.60
2018-06-15T08:58:40.365Z,67.30
2018-06-15T09:01:09.013Z,65.60
2018-06-15T09:03:37.853Z,65.20
2018-06-15T09:06:06.496Z,62.90
2018-06-15T09:08:35.929Z,60.00
2018-06-15T09:11:04.587Z,63.10
2018-06-15T09:13:33.709Z,64.80
2018-06-15T09:16:02.746Z,62.40
2018-06-15T09:18:31.448Z,64.20
2018-06-15T09:21:00.111Z,64.50
2018-06-15T09:23:28.754Z,66.00
2018-06-15T09:25:57.917Z,65.10
2018-06-15T09:28:26.774Z,64.20
2018-06-15T09:30:55.492Z,64.10
2018-06-15T09:33:24.231Z,60.80
2018-06-15T09:35:52.794Z,63.80
2018-06-15T09:38:21.498Z,63.60
2018-06-15T09:40:50.195Z,63.20
2018-06-15T09:43:18.749Z,59.10
2018-06-15T09:45:47.342Z,61.30
2018-06-15T09:48:15.920Z,62.10
2018-06-15T09:50:44.508Z,60.90
2018-06-15T09:53:13.062Z,62.30
2018-06-15T09:55:41.681Z,62.50
2018-06-15T09:58:10.309Z,59.70
2018-06-15T10:00:44.115Z,62.10
2018-06-15T10:03:12.705Z,64.60
2018-06-15T10:05:41.258Z,65.00
2018-06-15T10:08:09.873Z,62.10
2018-06-15T10:10:38.453Z,59.20
2018-06-15T10:13:07.109Z,60.30
2018-06-15T10:15:35.843Z,61.00
2018-06-15T10:18:04.579Z,60.60
2018-06-15T10:20:33.166Z,57.50
2018-06-15T10:23:01.797Z,58.50
2018-06-15T10:25:30.429Z,61.00
2018-06-15T10:27:59.094Z,57.40
2018-06-15T10:30:27.771Z,58.20
2018-06-15T10:32:56.898Z,56.80
2018-06-15T10:35:25.510Z,54.90
2018-06-15T10:37:54.106Z,57.40
2018-06-15T10:40:22.777Z,55.30
2018-06-15T10:42:51.471Z,57.00
2018-06-15T10:45:20.119Z,57.00
2018-06-15T10:47:48.739Z,58.00
2018-06-15T10:50:17.434Z,56.30
2018-06-15T10:52:46.066Z,57.40
2018-06-15T10:55:14.721Z,57.80
2018-06-15T10:57:43.610Z,55.30
2018-06-15T11:00:12.196Z,54.20
2018-06-15T11:02:40.830Z,50.70
2018-06-15T11:05:09.483Z,50.70
2018-06-15T11:07:38.111Z,51.20
2018-06-15T11:10:06.819Z,53.80
2018-06-15T11:12:35.458Z,52.90
2018-06-15T11:15:05.636Z,55.50
2018-06-15T11:17:35.067Z,52.40
2018-06-15T11:20:04.235Z,53.90
2018-06-15T11:22:32.819Z,54.80
2018-06-15T11:25:01.442Z,55.70
2018-06-15T11:27:30.187Z,53.90
2018-06-15T11:30:06.506Z,53.00
2018-06-15T11:32:35.527Z,56.10
